sensor_id;sensor_type;location;lat;lon;timestamp;P1;durP1;ratioP1;P2;durP2;ratioP2
61938;SDS011;47897;50.322;18.892;2023-04-06T00:00:59;82.50;;;40.70;;
61938;SDS011;47897;50.322;18.892;2023-04-06T00:03:25;83.60;;;40.20;;
61938;SDS011;47897;50.322;18.892;2023-04-06T00:05:51;89.70;;;42.30;;
61938;SDS011;47897;50.322;18.892;2023-04-06T00:08:17;95.40;;;41.10;;
61938;SDS011;47897;50.322;18.892;2023-04-06T00:10:43;91.80;;;40.90;;
61938;SDS011;47897;50.322;18.892;2023-04-06T00:13:09;79.90;;;37.50;;
61938;SDS011;47897;50.322;18.892;2023-04-06T00:15:35;78.90;;;38.40;;
61938;SDS011;47897;50.322;18.892;2023-04-06T00:18:02;76.40;;;39.00;;
61938;SDS011;47897;50.322;18.892;2023-04-06T00:20:28;84.70;;;40.50;;
61938;SDS011;47897;50.322;18.892;2023-04-06T00:22:54;78.40;;;37.50;;
61938;SDS011;47897;50.322;18.892;2023-04-06T00:25:20;72.00;;;36.80;;
61938;SDS011;47897;50.322;18.892;2023-04-06T00:27:46;75.30;;;34.30;;
61938;SDS011;47897;50.322;18.892;2023-04-06T00:30:12;74.50;;;35.20;;
61938;SDS011;47897;50.322;18.892;2023-04-06T00:32:37;75.50;;;35.60;;
61938;SDS011;47897;50.322;18.892;2023-04-06T00:35:04;78.00;;;34.60;;
61938;SDS011;47897;50.322;18.892;2023-04-06T00:37:30;71.60;;;35.70;;
61938;SDS011;47897;50.322;18.892;2023-04-06T00:39:56;70.40;;;33.30;;
61938;SDS011;47897;50.322;18.892;2023-04-06T00:42:23;71.70;;;35.10;;
61938;SDS011;47897;50.322;18.892;2023-04-06T00:44:52;75.20;;;34.90;;
61938;SDS011;47897;50.322;18.892;2023-04-06T00:47:18;70.20;;;33.90;;
61938;SDS011;47897;50.322;18.892;2023-04-06T00:49:44;65.30;;;32.30;;
61938;SDS011;47897;50.322;18.892;2023-04-06T00:52:10;70.10;;;31.20;;
61938;SDS011;47897;50.322;18.892;2023-04-06T00:54:36;67.40;;;33.30;;
61938;SDS011;47897;50.322;18.892;2023-04-06T00:57:02;59.80;;;30.90;;
61938;SDS011;47897;50.322;18.892;2023-04-06T00:59:28;71.40;;;34.50;;
61938;SDS011;47897;50.322;18.892;2023-04-06T01:01:55;63.30;;;32.40;;
61938;SDS011;47897;50.322;18.892;2023-04-06T01:04:21;58.20;;;31.20;;
61938;SDS011;47897;50.322;18.892;2023-04-06T01:06:50;72.00;;;33.60;;
61938;SDS011;47897;50.322;18.892;2023-04-06T01:09:16;64.10;;;31.80;;
61938;SDS011;47897;50.322;18.892;2023-04-06T01:11:42;73.30;;;32.80;;
61938;SDS011;47897;50.322;18.892;2023-04-06T01:14:09;64.70;;;32.40;;
61938;SDS011;47897;50.322;18.892;2023-04-06T01:16:35;62.80;;;31.00;;
61938;SDS011;47897;50.322;18.892;2023-04-06T01:19:04;66.10;;;33.40;;
61938;SDS011;47897;50.322;18.892;2023-04-06T01:21:32;69.30;;;32.40;;
61938;SDS011;47897;50.322;18.892;2023-04-06T01:23:58;73.30;;;34.80;;
61938;SDS011;47897;50.322;18.892;2023-04-06T01:26:24;66.30;;;33.80;;
61938;SDS011;47897;50.322;18.892;2023-04-06T01:28:50;67.40;;;32.90;;
61938;SDS011;47897;50.322;18.892;2023-04-06T01:31:16;66.00;;;32.50;;
61938;SDS011;47897;50.322;18.892;2023-04-06T01:33:42;72.40;;;34.70;;
61938;SDS011;47897;50.322;18.892;2023-04-06T01:36:08;76.20;;;34.10;;
61938;SDS011;47897;50.322;18.892;2023-04-06T01:38:34;69.60;;;33.10;;
61938;SDS011;47897;50.322;18.892;2023-04-06T01:41:00;70.10;;;34.30;;
61938;SDS011;47897;50.322;18.892;2023-04-06T01:43:26;76.50;;;37.40;;
61938;SDS011;47897;50.322;18.892;2023-04-06T01:45:52;78.10;;;35.20;;
61938;SDS011;47897;50.322;18.892;2023-04-06T01:48:18;74.90;;;34.90;;
61938;SDS011;47897;50.322;18.892;2023-04-06T01:50:44;65.80;;;33.50;;
61938;SDS011;47897;50.322;18.892;2023-04-06T01:53:10;68.40;;;33.10;;
61938;SDS011;47897;50.322;18.892;2023-04-06T01:55:36;65.90;;;33.80;;
61938;SDS011;47897;50.322;18.892;2023-04-06T01:58:02;69.20;;;36.00;;
61938;SDS011;47897;50.322;18.892;2023-04-06T02:00:28;70.30;;;35.50;;
61938;SDS011;47897;50.322;18.892;2023-04-06T02:02:54;69.40;;;37.50;;
61938;SDS011;47897;50.322;18.892;2023-04-06T02:05:20;76.60;;;36.60;;
61938;SDS011;47897;50.322;18.892;2023-04-06T02:07:46;70.10;;;33.40;;
61938;SDS011;47897;50.322;18.892;2023-04-06T02:10:12;65.00;;;33.90;;
61938;SDS011;47897;50.322;18.892;2023-04-06T02:12:38;72.70;;;33.70;;
61938;SDS011;47897;50.322;18.892;2023-04-06T02:15:04;71.70;;;32.30;;
61938;SDS011;47897;50.322;18.892;2023-04-06T02:17:31;63.80;;;29.70;;
61938;SDS011;47897;50.322;18.892;2023-04-06T02:19:56;55.20;;;28.30;;
61938;SDS011;47897;50.322;18.892;2023-04-06T02:22:22;60.20;;;29.40;;
61938;SDS011;47897;50.322;18.892;2023-04-06T02:24:48;65.30;;;30.40;;
61938;SDS011;47897;50.322;18.892;2023-04-06T02:27:14;65.70;;;32.10;;
61938;SDS011;47897;50.322;18.892;2023-04-06T02:29:40;70.40;;;32.50;;
61938;SDS011;47897;50.322;18.892;2023-04-06T02:32:06;68.20;;;32.40;;
61938;SDS011;47897;50.322;18.892;2023-04-06T02:34:32;62.90;;;32.00;;
61938;SDS011;47897;50.322;18.892;2023-04-06T02:36:58;64.80;;;33.50;;
61938;SDS011;47897;50.322;18.892;2023-04-06T02:39:24;64.00;;;30.00;;
61938;SDS011;47897;50.322;18.892;2023-04-06T02:41:50;65.20;;;29.50;;
61938;SDS011;47897;50.322;18.892;2023-04-06T02:44:16;62.00;;;32.00;;
61938;SDS011;47897;50.322;18.892;2023-04-06T02:46:42;68.00;;;31.50;;
61938;SDS011;47897;50.322;18.892;2023-04-06T02:49:08;68.80;;;33.00;;
61938;SDS011;47897;50.322;18.892;2023-04-06T02:51:34;68.90;;;32.50;;
61938;SDS011;47897;50.322;18.892;2023-04-06T02:54:00;72.20;;;32.10;;
61938;SDS011;47897;50.322;18.892;2023-04-06T02:56:26;83.90;;;34.30;;
61938;SDS011;47897;50.322;18.892;2023-04-06T02:58:52;97.90;;;39.30;;
61938;SDS011;47897;50.322;18.892;2023-04-06T03:01:18;97.80;;;40.10;;
61938;SDS011;47897;50.322;18.892;2023-04-06T03:03:44;106.10;;;40.70;;
61938;SDS011;47897;50.322;18.892;2023-04-06T03:06:10;109.50;;;45.50;;
61938;SDS011;47897;50.322;18.892;2023-04-06T03:08:36;94.10;;;40.30;;
61938;SDS011;47897;50.322;18.892;2023-04-06T03:11:02;100.10;;;40.70;;
61938;SDS011;47897;50.322;18.892;2023-04-06T03:13:28;130.00;;;50.10;;
61938;SDS011;47897;50.322;18.892;2023-04-06T03:15:53;334.80;;;104.80;;
61938;SDS011;47897;50.322;18.892;2023-04-06T03:18:21;671.00;;;240.10;;
61938;SDS011;47897;50.322;18.892;2023-04-06T03:20:47;538.40;;;190.60;;
61938;SDS011;47897;50.322;18.892;2023-04-06T03:23:13;211.00;;;74.90;;
61938;SDS011;47897;50.322;18.892;2023-04-06T03:25:39;131.60;;;49.40;;
61938;SDS011;47897;50.322;18.892;2023-04-06T03:28:05;92.20;;;41.80;;
61938;SDS011;47897;50.322;18.892;2023-04-06T03:30:32;78.50;;;36.60;;
61938;SDS011;47897;50.322;18.892;2023-04-06T03:32:58;86.20;;;38.20;;
61938;SDS011;47897;50.322;18.892;2023-04-06T03:35:24;81.90;;;40.40;;
61938;SDS011;47897;50.322;18.892;2023-04-06T03:37:50;79.50;;;39.60;;
61938;SDS011;47897;50.322;18.892;2023-04-06T03:40:16;82.80;;;40.30;;
61938;SDS011;47897;50.322;18.892;2023-04-06T03:42:42;79.30;;;38.60;;
61938;SDS011;47897;50.322;18.892;2023-04-06T03:45:08;78.70;;;40.00;;
61938;SDS011;47897;50.322;18.892;2023-04-06T03:47:34;82.40;;;41.00;;
61938;SDS011;47897;50.322;18.892;2023-04-06T03:50:00;79.60;;;40.60;;
61938;SDS011;47897;50.322;18.892;2023-04-06T03:52:27;76.10;;;40.70;;
61938;SDS011;47897;50.322;18.892;2023-04-06T03:54:53;77.20;;;40.30;;
61938;SDS011;47897;50.322;18.892;2023-04-06T03:57:19;72.50;;;38.50;;
61938;SDS011;47897;50.322;18.892;2023-04-06T03:59:45;78.00;;;39.20;;
61938;SDS011;47897;50.322;18.892;2023-04-06T04:02:11;80.50;;;39.30;;
61938;SDS011;47897;50.322;18.892;2023-04-06T04:04:37;92.60;;;42.10;;
61938;SDS011;47897;50.322;18.892;2023-04-06T04:07:03;73.90;;;39.20;;
61938;SDS011;47897;50.322;18.892;2023-04-06T04:09:29;75.20;;;41.10;;
61938;SDS011;47897;50.322;18.892;2023-04-06T04:11:55;73.70;;;38.40;;
61938;SDS011;47897;50.322;18.892;2023-04-06T04:14:21;77.60;;;37.80;;
61938;SDS011;47897;50.322;18.892;2023-04-06T04:16:47;70.00;;;37.80;;
61938;SDS011;47897;50.322;18.892;2023-04-06T04:19:13;72.20;;;37.50;;
61938;SDS011;47897;50.322;18.892;2023-04-06T04:21:42;71.40;;;37.10;;
61938;SDS011;47897;50.322;18.892;2023-04-06T04:24:09;73.30;;;36.90;;
61938;SDS011;47897;50.322;18.892;2023-04-06T04:26:35;68.80;;;38.00;;
61938;SDS011;47897;50.322;18.892;2023-04-06T04:29:01;79.70;;;43.60;;
61938;SDS011;47897;50.322;18.892;2023-04-06T04:31:27;75.70;;;41.10;;
61938;SDS011;47897;50.322;18.892;2023-04-06T04:33:53;77.30;;;41.20;;
61938;SDS011;47897;50.322;18.892;2023-04-06T04:36:19;76.20;;;38.60;;
61938;SDS011;47897;50.322;18.892;2023-04-06T04:38:45;68.20;;;37.80;;
61938;SDS011;47897;50.322;18.892;2023-04-06T04:41:11;67.10;;;36.70;;
61938;SDS011;47897;50.322;18.892;2023-04-06T04:43:37;65.80;;;37.30;;
61938;SDS011;47897;50.322;18.892;2023-04-06T04:46:03;72.40;;;35.00;;
61938;SDS011;47897;50.322;18.892;2023-04-06T04:48:30;74.10;;;37.80;;
61938;SDS011;47897;50.322;18.892;2023-04-06T04:50:56;71.00;;;34.50;;
61938;SDS011;47897;50.322;18.892;2023-04-06T04:53:22;67.60;;;34.00;;
61938;SDS011;47897;50.322;18.892;2023-04-06T04:55:48;64.80;;;33.30;;
61938;SDS011;47897;50.322;18.892;2023-04-06T04:58:13;65.70;;;34.50;;
61938;SDS011;47897;50.322;18.892;2023-04-06T05:00:44;73.70;;;36.20;;
61938;SDS011;47897;50.322;18.892;2023-04-06T05:03:20;62.50;;;33.40;;
61938;SDS011;47897;50.322;18.892;2023-04-06T05:05:47;69.20;;;35.10;;
61938;SDS011;47897;50.322;18.892;2023-04-06T05:08:13;69.70;;;36.00;;
61938;SDS011;47897;50.322;18.892;2023-04-06T05:10:39;80.60;;;39.30;;
61938;SDS011;47897;50.322;18.892;2023-04-06T05:13:05;79.90;;;39.70;;
61938;SDS011;47897;50.322;18.892;2023-04-06T05:15:31;80.40;;;39.40;;
61938;SDS011;47897;50.322;18.892;2023-04-06T05:18:00;86.20;;;40.90;;
61938;SDS011;47897;50.322;18.892;2023-04-06T05:20:26;78.50;;;38.20;;
61938;SDS011;47897;50.322;18.892;2023-04-06T05:22:53;80.10;;;39.50;;
61938;SDS011;47897;50.322;18.892;2023-04-06T05:25:19;67.00;;;37.10;;
61938;SDS011;47897;50.322;18.892;2023-04-06T05:27:45;70.90;;;36.60;;
61938;SDS011;47897;50.322;18.892;2023-04-06T05:30:11;70.60;;;39.40;;
61938;SDS011;47897;50.322;18.892;2023-04-06T05:32:37;76.00;;;40.00;;
61938;SDS011;47897;50.322;18.892;2023-04-06T05:35:04;79.10;;;40.30;;
61938;SDS011;47897;50.322;18.892;2023-04-06T05:37:30;76.50;;;40.80;;
61938;SDS011;47897;50.322;18.892;2023-04-06T05:39:56;84.00;;;41.60;;
61938;SDS011;47897;50.322;18.892;2023-04-06T05:42:22;81.40;;;41.60;;
61938;SDS011;47897;50.322;18.892;2023-04-06T05:44:48;86.50;;;43.30;;
61938;SDS011;47897;50.322;18.892;2023-04-06T05:47:14;82.80;;;43.60;;
61938;SDS011;47897;50.322;18.892;2023-04-06T05:49:43;91.10;;;43.50;;
61938;SDS011;47897;50.322;18.892;2023-04-06T05:52:10;98.20;;;42.20;;
61938;SDS011;47897;50.322;18.892;2023-04-06T05:54:36;94.50;;;46.60;;
61938;SDS011;47897;50.322;18.892;2023-04-06T05:57:03;88.90;;;43.90;;
61938;SDS011;47897;50.322;18.892;2023-04-06T05:59:32;81.30;;;43.20;;
61938;SDS011;47897;50.322;18.892;2023-04-06T06:01:58;94.80;;;45.70;;
61938;SDS011;47897;50.322;18.892;2023-04-06T06:04:24;94.60;;;45.90;;
61938;SDS011;47897;50.322;18.892;2023-04-06T06:06:49;108.20;;;50.30;;
61938;SDS011;47897;50.322;18.892;2023-04-06T06:09:15;104.20;;;49.20;;
61938;SDS011;47897;50.322;18.892;2023-04-06T06:11:41;102.50;;;47.60;;
61938;SDS011;47897;50.322;18.892;2023-04-06T06:14:07;99.40;;;46.20;;
61938;SDS011;47897;50.322;18.892;2023-04-06T06:16:33;95.20;;;46.00;;
61938;SDS011;47897;50.322;18.892;2023-04-06T06:19:00;90.40;;;45.20;;
61938;SDS011;47897;50.322;18.892;2023-04-06T06:21:25;75.50;;;39.10;;
61938;SDS011;47897;50.322;18.892;2023-04-06T06:23:52;78.80;;;40.50;;
61938;SDS011;47897;50.322;18.892;2023-04-06T06:26:19;84.10;;;42.50;;
61938;SDS011;47897;50.322;18.892;2023-04-06T06:28:45;95.00;;;43.60;;
61938;SDS011;47897;50.322;18.892;2023-04-06T06:31:11;83.80;;;38.40;;
61938;SDS011;47897;50.322;18.892;2023-04-06T06:33:37;85.20;;;42.30;;
61938;SDS011;47897;50.322;18.892;2023-04-06T06:36:03;76.00;;;39.10;;
61938;SDS011;47897;50.322;18.892;2023-04-06T06:38:29;72.00;;;35.70;;
61938;SDS011;47897;50.322;18.892;2023-04-06T06:40:55;68.20;;;34.30;;
61938;SDS011;47897;50.322;18.892;2023-04-06T06:43:21;60.50;;;32.20;;
61938;SDS011;47897;50.322;18.892;2023-04-06T06:45:47;66.90;;;33.70;;
61938;SDS011;47897;50.322;18.892;2023-04-06T06:48:13;70.10;;;32.40;;
61938;SDS011;47897;50.322;18.892;2023-04-06T06:50:39;56.50;;;29.50;;
61938;SDS011;47897;50.322;18.892;2023-04-06T06:53:05;51.20;;;24.40;;
61938;SDS011;47897;50.322;18.892;2023-04-06T06:55:31;32.10;;;15.30;;
61938;SDS011;47897;50.322;18.892;2023-04-06T06:57:57;46.30;;;21.80;;
61938;SDS011;47897;50.322;18.892;2023-04-06T07:00:23;22.70;;;13.40;;
61938;SDS011;47897;50.322;18.892;2023-04-06T07:02:49;43.40;;;20.30;;
61938;SDS011;47897;50.322;18.892;2023-04-06T07:05:16;42.90;;;19.90;;
61938;SDS011;47897;50.322;18.892;2023-04-06T07:07:42;28.00;;;14.50;;
61938;SDS011;47897;50.322;18.892;2023-04-06T07:10:08;37.10;;;18.40;;
61938;SDS011;47897;50.322;18.892;2023-04-06T07:12:34;35.50;;;17.80;;
61938;SDS011;47897;50.322;18.892;2023-04-06T07:15:00;34.20;;;16.20;;
61938;SDS011;47897;50.322;18.892;2023-04-06T07:17:26;27.90;;;15.70;;
61938;SDS011;47897;50.322;18.892;2023-04-06T07:19:52;27.70;;;15.70;;
61938;SDS011;47897;50.322;18.892;2023-04-06T07:22:18;31.40;;;15.20;;
61938;SDS011;47897;50.322;18.892;2023-04-06T07:24:44;28.90;;;14.60;;
61938;SDS011;47897;50.322;18.892;2023-04-06T07:27:10;22.90;;;13.00;;
61938;SDS011;47897;50.322;18.892;2023-04-06T07:29:36;24.40;;;14.40;;
61938;SDS011;47897;50.322;18.892;2023-04-06T07:32:02;25.90;;;15.00;;
61938;SDS011;47897;50.322;18.892;2023-04-06T07:34:28;22.90;;;14.30;;
61938;SDS011;47897;50.322;18.892;2023-04-06T07:36:54;24.80;;;14.30;;
61938;SDS011;47897;50.322;18.892;2023-04-06T07:39:20;82.90;;;44.80;;
61938;SDS011;47897;50.322;18.892;2023-04-06T07:41:46;42.20;;;23.30;;
61938;SDS011;47897;50.322;18.892;2023-04-06T07:44:12;69.10;;;31.50;;
61938;SDS011;47897;50.322;18.892;2023-04-06T07:46:38;38.60;;;20.90;;
61938;SDS011;47897;50.322;18.892;2023-04-06T07:49:04;29.80;;;16.80;;
61938;SDS011;47897;50.322;18.892;2023-04-06T07:51:30;29.30;;;17.20;;
61938;SDS011;47897;50.322;18.892;2023-04-06T07:53:57;23.90;;;14.60;;
61938;SDS011;47897;50.322;18.892;2023-04-06T07:56:24;25.20;;;14.20;;
61938;SDS011;47897;50.322;18.892;2023-04-06T07:58:53;18.80;;;11.40;;
61938;SDS011;47897;50.322;18.892;2023-04-06T08:01:22;23.50;;;12.50;;
61938;SDS011;47897;50.322;18.892;2023-04-06T08:03:48;21.20;;;13.60;;
61938;SDS011;47897;50.322;18.892;2023-04-06T08:06:15;23.50;;;12.90;;
61938;SDS011;47897;50.322;18.892;2023-04-06T08:08:41;21.50;;;12.80;;
61938;SDS011;47897;50.322;18.892;2023-04-06T08:11:07;17.80;;;11.30;;
61938;SDS011;47897;50.322;18.892;2023-04-06T08:13:33;20.70;;;13.70;;
61938;SDS011;47897;50.322;18.892;2023-04-06T08:16:00;24.30;;;13.70;;
61938;SDS011;47897;50.322;18.892;2023-04-06T08:18:26;18.40;;;12.70;;
61938;SDS011;47897;50.322;18.892;2023-04-06T08:20:52;17.70;;;12.00;;
61938;SDS011;47897;50.322;18.892;2023-04-06T08:23:17;26.20;;;14.50;;
61938;SDS011;47897;50.322;18.892;2023-04-06T08:25:43;17.60;;;9.80;;
61938;SDS011;47897;50.322;18.892;2023-04-06T08:28:12;25.00;;;13.50;;
61938;SDS011;47897;50.322;18.892;2023-04-06T08:30:42;18.30;;;10.90;;
61938;SDS011;47897;50.322;18.892;2023-04-06T08:33:10;19.10;;;12.00;;
61938;SDS011;47897;50.322;18.892;2023-04-06T08:35:36;19.00;;;12.30;;
61938;SDS011;47897;50.322;18.892;2023-04-06T08:38:02;20.50;;;13.20;;
61938;SDS011;47897;50.322;18.892;2023-04-06T08:40:28;19.10;;;12.20;;
61938;SDS011;47897;50.322;18.892;2023-04-06T08:42:54;21.90;;;11.80;;
61938;SDS011;47897;50.322;18.892;2023-04-06T08:45:21;21.80;;;13.60;;
61938;SDS011;47897;50.322;18.892;2023-04-06T08:47:49;22.10;;;12.00;;
61938;SDS011;47897;50.322;18.892;2023-04-06T08:50:16;20.70;;;11.60;;
61938;SDS011;47897;50.322;18.892;2023-04-06T08:52:46;15.20;;;10.20;;
61938;SDS011;47897;50.322;18.892;2023-04-06T08:55:12;19.00;;;11.70;;
61938;SDS011;47897;50.322;18.892;2023-04-06T08:57:38;21.40;;;12.70;;
61938;SDS011;47897;50.322;18.892;2023-04-06T09:00:06;18.30;;;12.60;;
61938;SDS011;47897;50.322;18.892;2023-04-06T09:02:33;28.20;;;14.30;;
61938;SDS011;47897;50.322;18.892;2023-04-06T09:04:59;17.10;;;10.70;;
61938;SDS011;47897;50.322;18.892;2023-04-06T09:07:26;18.20;;;12.10;;
61938;SDS011;47897;50.322;18.892;2023-04-06T09:09:52;24.30;;;13.70;;
61938;SDS011;47897;50.322;18.892;2023-04-06T09:12:22;23.70;;;13.90;;
61938;SDS011;47897;50.322;18.892;2023-04-06T09:14:48;24.10;;;14.90;;
61938;SDS011;47897;50.322;18.892;2023-04-06T09:17:24;30.60;;;16.30;;
61938;SDS011;47897;50.322;18.892;2023-04-06T09:19:50;36.00;;;19.50;;
61938;SDS011;47897;50.322;18.892;2023-04-06T09:22:16;40.40;;;25.70;;
61938;SDS011;47897;50.322;18.892;2023-04-06T09:24:49;22.30;;;12.30;;
61938;SDS011;47897;50.322;18.892;2023-04-06T09:27:15;24.20;;;14.30;;
61938;SDS011;47897;50.322;18.892;2023-04-06T09:29:42;16.10;;;9.50;;
61938;SDS011;47897;50.322;18.892;2023-04-06T09:32:08;18.60;;;10.50;;
61938;SDS011;47897;50.322;18.892;2023-04-06T09:34:38;23.30;;;15.00;;
61938;SDS011;47897;50.322;18.892;2023-04-06T09:39:41;18.70;;;11.80;;
61938;SDS011;47897;50.322;18.892;2023-04-06T09:42:09;21.30;;;12.80;;
61938;SDS011;47897;50.322;18.892;2023-04-06T09:44:37;29.80;;;15.70;;
61938;SDS011;47897;50.322;18.892;2023-04-06T09:47:05;17.00;;;11.50;;
61938;SDS011;47897;50.322;18.892;2023-04-06T09:49:34;29.90;;;18.10;;
61938;SDS011;47897;50.322;18.892;2023-04-06T09:52:03;26.00;;;18.10;;
61938;SDS011;47897;50.322;18.892;2023-04-06T09:54:30;23.70;;;14.90;;
61938;SDS011;47897;50.322;18.892;2023-04-06T10:04:56;25.30;;;15.10;;
61938;SDS011;47897;50.322;18.892;2023-04-06T10:07:24;23.10;;;12.50;;
61938;SDS011;47897;50.322;18.892;2023-04-06T10:09:52;24.50;;;14.50;;
61938;SDS011;47897;50.322;18.892;2023-04-06T10:12:20;20.70;;;11.40;;
61938;SDS011;47897;50.322;18.892;2023-04-06T10:14:47;21.10;;;12.70;;
61938;SDS011;47897;50.322;18.892;2023-04-06T10:17:18;22.50;;;12.20;;
61938;SDS011;47897;50.322;18.892;2023-04-06T10:19:46;23.40;;;12.90;;
61938;SDS011;47897;50.322;18.892;2023-04-06T10:22:18;21.10;;;10.30;;
61938;SDS011;47897;50.322;18.892;2023-04-06T10:24:46;25.90;;;15.30;;
61938;SDS011;47897;50.322;18.892;2023-04-06T10:27:12;18.20;;;10.20;;
61938;SDS011;47897;50.322;18.892;2023-04-06T10:29:45;30.80;;;15.60;;
61938;SDS011;47897;50.322;18.892;2023-04-06T10:32:12;20.10;;;14.40;;
61938;SDS011;47897;50.322;18.892;2023-04-06T10:34:38;22.10;;;13.00;;
61938;SDS011;47897;50.322;18.892;2023-04-06T10:37:13;22.10;;;13.80;;
61938;SDS011;47897;50.322;18.892;2023-04-06T10:39:46;23.70;;;11.50;;
61938;SDS011;47897;50.322;18.892;2023-04-06T10:42:12;49.00;;;21.70;;
61938;SDS011;47897;50.322;18.892;2023-04-06T10:44:42;23.60;;;11.00;;
61938;SDS011;47897;50.322;18.892;2023-04-06T10:47:15;18.70;;;11.80;;
61938;SDS011;47897;50.322;18.892;2023-04-06T10:49:42;17.50;;;10.80;;
61938;SDS011;47897;50.322;18.892;2023-04-06T10:52:08;22.20;;;12.20;;
61938;SDS011;47897;50.322;18.892;2023-04-06T10:54:35;23.90;;;13.80;;
61938;SDS011;47897;50.322;18.892;2023-04-06T10:57:05;14.50;;;9.60;;
61938;SDS011;47897;50.322;18.892;2023-04-06T10:59:31;18.10;;;10.90;;
61938;SDS011;47897;50.322;18.892;2023-04-06T11:01:57;21.20;;;11.20;;
61938;SDS011;47897;50.322;18.892;2023-04-06T11:04:24;20.10;;;11.90;;
61938;SDS011;47897;50.322;18.892;2023-04-06T11:06:50;17.10;;;9.60;;
61938;SDS011;47897;50.322;18.892;2023-04-06T11:09:26;17.10;;;10.70;;
61938;SDS011;47897;50.322;18.892;2023-04-06T11:11:52;14.60;;;9.50;;
61938;SDS011;47897;50.322;18.892;2023-04-06T11:14:18;17.50;;;10.50;;
61938;SDS011;47897;50.322;18.892;2023-04-06T11:16:45;17.60;;;10.80;;
61938;SDS011;47897;50.322;18.892;2023-04-06T11:19:12;17.40;;;11.00;;
61938;SDS011;47897;50.322;18.892;2023-04-06T11:21:39;15.30;;;8.90;;
61938;SDS011;47897;50.322;18.892;2023-04-06T11:24:06;10.10;;;6.20;;
61938;SDS011;47897;50.322;18.892;2023-04-06T11:26:36;12.30;;;8.20;;
61938;SDS011;47897;50.322;18.892;2023-04-06T11:29:02;17.30;;;10.20;;
61938;SDS011;47897;50.322;18.892;2023-04-06T11:31:28;16.80;;;8.40;;
61938;SDS011;47897;50.322;18.892;2023-04-06T11:33:57;15.70;;;9.10;;
61938;SDS011;47897;50.322;18.892;2023-04-06T11:36:23;13.70;;;7.40;;
61938;SDS011;47897;50.322;18.892;2023-04-06T11:38:49;19.00;;;8.70;;
61938;SDS011;47897;50.322;18.892;2023-04-06T11:41:15;15.90;;;9.90;;
61938;SDS011;47897;50.322;18.892;2023-04-06T11:43:47;11.70;;;7.50;;
61938;SDS011;47897;50.322;18.892;2023-04-06T11:46:17;14.50;;;8.20;;
61938;SDS011;47897;50.322;18.892;2023-04-06T11:48:43;19.50;;;11.20;;
61938;SDS011;47897;50.322;18.892;2023-04-06T11:51:09;15.70;;;10.60;;
61938;SDS011;47897;50.322;18.892;2023-04-06T11:53:43;13.00;;;7.20;;
61938;SDS011;47897;50.322;18.892;2023-04-06T11:56:09;17.40;;;9.70;;
61938;SDS011;47897;50.322;18.892;2023-04-06T11:58:35;23.00;;;12.40;;
61938;SDS011;47897;50.322;18.892;2023-04-06T12:01:04;19.50;;;12.00;;
61938;SDS011;47897;50.322;18.892;2023-04-06T12:03:30;15.50;;;9.30;;
61938;SDS011;47897;50.322;18.892;2023-04-06T12:05:56;24.40;;;12.30;;
61938;SDS011;47897;50.322;18.892;2023-04-06T12:08:22;17.00;;;9.20;;
61938;SDS011;47897;50.322;18.892;2023-04-06T12:10:51;18.10;;;11.60;;
61938;SDS011;47897;50.322;18.892;2023-04-06T12:13:17;17.50;;;11.20;;
61938;SDS011;47897;50.322;18.892;2023-04-06T12:15:43;11.80;;;8.20;;
61938;SDS011;47897;50.322;18.892;2023-04-06T12:18:09;21.30;;;12.50;;
61938;SDS011;47897;50.322;18.892;2023-04-06T12:20:34;20.80;;;11.70;;
61938;SDS011;47897;50.322;18.892;2023-04-06T12:23:01;11.10;;;5.80;;
61938;SDS011;47897;50.322;18.892;2023-04-06T12:25:27;15.70;;;8.30;;
61938;SDS011;47897;50.322;18.892;2023-04-06T12:27:53;14.30;;;9.70;;
61938;SDS011;47897;50.322;18.892;2023-04-06T12:30:19;14.90;;;8.90;;
61938;SDS011;47897;50.322;18.892;2023-04-06T12:32:45;21.20;;;11.50;;
61938;SDS011;47897;50.322;18.892;2023-04-06T12:35:13;24.00;;;13.70;;
61938;SDS011;47897;50.322;18.892;2023-04-06T12:37:41;25.50;;;12.50;;
61938;SDS011;47897;50.322;18.892;2023-04-06T12:40:08;15.40;;;9.20;;
61938;SDS011;47897;50.322;18.892;2023-04-06T12:42:36;16.10;;;6.50;;
61938;SDS011;47897;50.322;18.892;2023-04-06T12:45:02;20.50;;;12.20;;
61938;SDS011;47897;50.322;18.892;2023-04-06T12:47:28;18.00;;;10.60;;
61938;SDS011;47897;50.322;18.892;2023-04-06T12:49:54;15.60;;;11.90;;
61938;SDS011;47897;50.322;18.892;2023-04-06T12:52:21;16.00;;;10.60;;
61938;SDS011;47897;50.322;18.892;2023-04-06T12:54:47;17.80;;;11.50;;
61938;SDS011;47897;50.322;18.892;2023-04-06T12:57:13;22.00;;;12.80;;
61938;SDS011;47897;50.322;18.892;2023-04-06T12:59:42;13.50;;;7.70;;
61938;SDS011;47897;50.322;18.892;2023-04-06T13:02:09;18.40;;;11.20;;
61938;SDS011;47897;50.322;18.892;2023-04-06T13:04:36;16.80;;;12.20;;
61938;SDS011;47897;50.322;18.892;2023-04-06T13:07:02;18.00;;;11.90;;
61938;SDS011;47897;50.322;18.892;2023-04-06T13:09:28;15.10;;;9.60;;
61938;SDS011;47897;50.322;18.892;2023-04-06T13:11:54;21.70;;;13.30;;
61938;SDS011;47897;50.322;18.892;2023-04-06T13:14:20;16.60;;;9.50;;
61938;SDS011;47897;50.322;18.892;2023-04-06T13:16:46;21.70;;;13.10;;
61938;SDS011;47897;50.322;18.892;2023-04-06T13:19:12;21.90;;;13.10;;
61938;SDS011;47897;50.322;18.892;2023-04-06T13:21:38;23.70;;;12.20;;
61938;SDS011;47897;50.322;18.892;2023-04-06T13:24:05;17.30;;;10.90;;
61938;SDS011;47897;50.322;18.892;2023-04-06T13:26:31;24.30;;;17.40;;
61938;SDS011;47897;50.322;18.892;2023-04-06T13:28:58;24.60;;;14.90;;
61938;SDS011;47897;50.322;18.892;2023-04-06T13:31:25;20.40;;;12.70;;
61938;SDS011;47897;50.322;18.892;2023-04-06T13:33:50;36.10;;;20.50;;
61938;SDS011;47897;50.322;18.892;2023-04-06T13:36:16;33.60;;;19.60;;
61938;SDS011;47897;50.322;18.892;2023-04-06T13:38:42;25.60;;;15.30;;
61938;SDS011;47897;50.322;18.892;2023-04-06T13:41:08;21.50;;;11.10;;
61938;SDS011;47897;50.322;18.892;2023-04-06T13:43:34;22.30;;;14.30;;
61938;SDS011;47897;50.322;18.892;2023-04-06T13:46:00;18.50;;;9.60;;
61938;SDS011;47897;50.322;18.892;2023-04-06T13:48:26;25.30;;;15.40;;
61938;SDS011;47897;50.322;18.892;2023-04-06T13:50:52;17.00;;;9.20;;
61938;SDS011;47897;50.322;18.892;2023-04-06T13:53:19;23.40;;;14.20;;
61938;SDS011;47897;50.322;18.892;2023-04-06T13:55:56;20.90;;;11.30;;
61938;SDS011;47897;50.322;18.892;2023-04-06T13:58:22;25.20;;;14.10;;
61938;SDS011;47897;50.322;18.892;2023-04-06T14:00:49;12.40;;;7.90;;
61938;SDS011;47897;50.322;18.892;2023-04-06T14:03:16;30.60;;;17.40;;
61938;SDS011;47897;50.322;18.892;2023-04-06T14:05:42;24.50;;;16.50;;
61938;SDS011;47897;50.322;18.892;2023-04-06T14:08:08;20.10;;;12.30;;
61938;SDS011;47897;50.322;18.892;2023-04-06T14:10:38;24.50;;;14.60;;
61938;SDS011;47897;50.322;18.892;2023-04-06T14:13:07;17.20;;;10.90;;
61938;SDS011;47897;50.322;18.892;2023-04-06T14:15:33;27.50;;;17.50;;